Time;durP1;ratioP1;P1;durP2;ratioP2;P2;SDS_P1;SDS_P2;PMS_P1;PMS_P2;Temp;Humidity;BMP_temperature;BMP_pressure;BME280_temperature;BME280_humidity;BME280_pressure;Samples;Min_cycle;Max_cycle;Signal;HPM_P1;HPM_P2
2022/04/28 00:00:00;;;;;;;;;;;;;;;;;;5038579;28;19909;-73
2022/04/28 00:02:26;;;;;;;;;;;;;;;;;;5038103;28;19916;-73
2022/04/28 00:04:52;;;;;;;;;;;;;;;;;;5038103;28;20012;-73
2022/04/28 00:07:18;;;;;;;;;;;;;;;;;;5037846;28;19992;-73
2022/04/28 00:09:44;;;;;;;;;;;;;;;;;;5038111;28;19949;-73
2022/04/28 00:12:10;;;;;;;;;;;;;;;;;;5037877;28;19979;-73
2022/04/28 00:14:36;;;;;;;;;;;;;;;;;;5037640;28;19916;-72
2022/04/28 00:17:02;;;;;;;;;;;;;;;;;;5037804;28;19909;-73
2022/04/28 00:19:28;;;;;;;;;;;;;;;;;;5037915;28;19934;-73
2022/04/28 00:21:54;;;;;;;;;;;;;;;;;;5038060;28;20004;-73
2022/04/28 00:24:20;;;;;;;;;;;;;;;;;;5037521;28;19916;-73
2022/04/28 00:26:46;;;;;;;;;;;;;;;;;;5037879;28;19924;-73
2022/04/28 00:29:12;;;;;;;;;;;;;;;;;;5037740;28;20003;-73
2022/04/28 00:31:38;;;;;;;;;;;;;;;;;;5037795;28;19917;-72
2022/04/28 00:34:04;;;;;;;;;;;;;;;;;;5037590;28;19920;-72
2022/04/28 00:36:30;;;;;;;;;;;;;;;;;;5037568;28;19917;-72
2022/04/28 00:38:56;;;;;;;;;;;;;;;;;;5037537;28;19963;-72
2022/04/28 00:41:22;;;;;;;;;;;;;;;;;;5037842;28;19995;-72
2022/04/28 00:43:49;;;;;;;;;;;;;;;;;;5037561;28;19947;-73
2022/04/28 00:46:14;;;;;;;;;;;;;;;;;;5036855;28;20360;-73
2022/04/28 00:51:25;;;;;;;;;;;;;;;;;;5036754;28;20421;-73
2022/04/28 00:53:51;;;;;;;;;;;;;;;;;;5037524;28;19913;-73
2022/04/28 00:56:17;;;;;;;;;;;;;;;;;;5037283;28;19991;-73
2022/04/28 00:58:43;;;;;;;;;;;;;;;;;;5036758;28;19909;-73
2022/04/28 01:01:09;;;;;;;;;;;;;;;;;;5037082;28;20424;-73
2022/04/28 01:03:35;;;;;;;;;;;;;;;;;;5037335;28;20328;-73
2022/04/28 01:06:04;;;;;;;;;;;;;;;;;;5036920;28;19924;-73
2022/04/28 01:08:30;;;;;;;;;;;;;;;;;;5036690;28;19909;-73
2022/04/28 01:10:56;;;;;;;;;;;;;;;;;;5036935;28;19909;-73
2022/04/28 01:13:22;;;;;;;;;;;;;;;;;;5036853;28;20050;-73
2022/04/28 01:15:48;;;;;;;;;;;;;;;;;;5036426;28;19913;-73
2022/04/28 01:18:14;;;;;;;;;;;;;;;;;;5036504;28;19913;-73
2022/04/28 01:20:40;;;;;;;;;;;;;;;;;;5036666;28;20001;-73
2022/04/28 01:23:06;;;;;;;;;;;;;;;;;;5036290;28;19945;-73
2022/04/28 01:25:32;;;;;;;;;;;;;;;;;;5037024;28;19975;-73
2022/04/28 01:27:58;;;;;;;;;;;;;;;;;;5036605;28;19909;-73
2022/04/28 01:30:24;;;;;;;;;;;;;;;;;;5036688;28;20402;-73
2022/04/28 01:32:50;;;;;;;;;;;;;;;;;;5037132;28;19947;-73
2022/04/28 01:35:15;;;;;;;;;;;;;;;;;;5036423;28;19909;-73
2022/04/28 01:37:41;;;;;;;;;;;;;;;;;;5036095;28;19913;-73
2022/04/28 01:40:16;;;;;;;;;;;;;;;;;;5036982;28;19991;-73
2022/04/28 01:42:42;;;;;;;;;;;;;;;;;;5036343;28;19909;-72
2022/04/28 01:45:08;;;;;;;;;;;;;;;;;;5036576;28;19924;-72
2022/04/28 01:47:34;;;;;;;;;;;;;;;;;;5036200;28;19913;-72
2022/04/28 01:50:00;;;;;;;;;;;;;;;;;;5036234;28;20008;-72
2022/04/28 01:55:10;;;;;;;;;;;;;;;;;;5035585;28;20348;-73
2022/04/28 01:57:37;;;;;;;;;;;;;;;;;;5035759;28;19913;-72
2022/04/28 02:00:03;;;;;;;;;;;;;;;;;;5035515;28;19916;-73
2022/04/28 02:02:31;;;;;;;;;;;;;;;;;;5035961;28;20004;-73
2022/04/28 02:04:59;;;;;;;;;;;;;;;;;;5035508;28;19955;-73
2022/04/28 02:07:25;;;;;;;;;;;;;;;;;;5035749;28;19916;-72
2022/04/28 02:09:50;;;;;;;;;;;;;;;;;;5035829;28;19909;-72
2022/04/28 02:12:16;;;;;;;;;;;;;;;;;;5034961;28;19909;-72
2022/04/28 02:14:42;;;;;;;;;;;;;;;;;;5035785;28;20001;-72
2022/04/28 02:17:08;;;;;;;;;;;;;;;;;;5035584;28;19913;-72
2022/04/28 02:19:37;;;;;;;;;;;;;;;;;;5035743;28;19912;-73
2022/04/28 02:22:03;;;;;;;;;;;;;;;;;;5035809;28;20039;-73
2022/04/28 02:24:29;;;;;;;;;;;;;;;;;;5035709;28;19955;-73
2022/04/28 02:26:55;;;;;;;;;;;;;;;;;;5035613;28;19917;-73
2022/04/28 02:29:21;;;;;;;;;;;;;;;;;;5035669;28;19916;-73
2022/04/28 02:31:47;;;;;;;;;;;;;;;;;;5035027;28;20019;-73
2022/04/28 02:34:13;;;;;;;;;;;;;;;;;;5035169;28;19917;-72
2022/04/28 02:36:39;;;;;;;;;;;;;;;;;;5035153;28;19916;-73
2022/04/28 02:39:05;;;;;;;;;;;;;;;;;;5035391;28;19909;-73
2022/04/28 02:41:31;;;;;;;;;;;;;;;;;;5035136;28;20311;-72
2022/04/28 02:43:57;;;;;;;;;;;;;;;;;;5035036;28;19909;-73
2022/04/28 02:46:23;;;;;;;;;;;;;;;;;;5034780;28;19917;-72
2022/04/28 02:48:49;;;;;;;;;;;;;;;;;;5034931;28;19909;-72
2022/04/28 02:51:15;;;;;;;;;;;;;;;;;;5035330;28;20311;-73
2022/04/28 02:53:41;;;;;;;;;;;;;;;;;;5034963;28;20343;-72
2022/04/28 02:56:07;;;;;;;;;;;;;;;;;;5034955;28;19916;-72
2022/04/28 02:58:36;;;;;;;;;;;;;;;;;;5035467;28;19909;-72
2022/04/28 03:01:02;;;;;;;;;;;;;;;;;;5034469;28;19909;-72
2022/04/28 03:03:28;;;;;;;;;;;;;;;;;;5035126;28;19917;-72
2022/04/28 03:11:37;;;;;;;;;;;;;;;;;;5022238;28;19996;-72
2022/04/28 03:14:03;;;;;;;;;;;;;;;;;;5034473;28;20070;-72
2022/04/28 03:16:29;;;;;;;;;;;;;;;;;;5034660;28;19909;-72
2022/04/28 03:18:55;;;;;;;;;;;;;;;;;;5034682;28;19916;-72
2022/04/28 03:21:21;;;;;;;;;;;;;;;;;;5034514;28;19953;-72
2022/04/28 03:23:48;;;;;;;;;;;;;;;;;;5037782;28;20366;-72
2022/04/28 03:26:14;;;;;;;;;;;;;;;;;;5038413;28;19921;-73
2022/04/28 03:28:40;;;;;;;;;;;;;;;;;;5038301;28;19916;-73
2022/04/28 03:31:06;;;;;;;;;;;;;;;;;;5038536;28;20340;-72
2022/04/28 03:33:32;;;;;;;;;;;;;;;;;;5038780;28;19915;-73
2022/04/28 03:35:58;;;;;;;;;;;;;;;;;;5038735;28;19909;-72
2022/04/28 03:38:24;;;;;;;;;;;;;;;;;;5039212;28;20229;-72
2022/04/28 03:40:49;;;;;;;;;;;;;;;;;;5038672;28;19909;-73
2022/04/28 03:43:17;;;;;;;;;;;;;;;;;;5038595;28;20370;-73
2022/04/28 03:45:43;;;;;;;;;;;;;;;;;;5037907;28;19921;-73
2022/04/28 03:48:09;;;;;;;;;;;;;;;;;;5039068;28;19909;-73
2022/04/28 03:50:35;;;;;;;;;;;;;;;;;;5038109;28;19915;-73
2022/04/28 03:53:01;;;;;;;;;;;;;;;;;;5038105;28;19999;-73
2022/04/28 03:55:27;;;;;;;;;;;;;;;;;;5038127;28;19963;-73
2022/04/28 04:00:32;;;;;;;;;;;;;;;;;;5494742;23;19921;-73
2022/04/28 04:02:58;;;;;;;;;;;;;;;;;;5017564;28;19937;-73
2022/04/28 04:05:24;;;;;;;;;;;;;;;;;;5017150;28;20397;-73
2022/04/28 04:07:50;;;;;;;;;;;;;;;;;;5017225;28;19913;-73
2022/04/28 04:10:16;;;;;;;;;;;;;;;;;;5017117;28;19963;-73
2022/04/28 04:12:42;;;;;;;;;;;;;;;;;;5017147;28;20003;-73
2022/04/28 04:15:08;;;;;;;;;;;;;;;;;;5016885;28;19953;-73
2022/04/28 04:17:34;;;;;;;;;;;;;;;;;;5016730;28;19913;-73
2022/04/28 04:20:00;;;;;;;;;;;;;;;;;;5016549;28;20004;-73
2022/04/28 04:22:26;;;;;;;;;;;;;;;;;;5015417;28;19956;-73
2022/04/28 04:24:52;;;;;;;;;;;;;;;;;;5016736;28;20336;-72
2022/04/28 04:27:19;;;;;;;;;;;;;;;;;;5016246;28;20435;-73
2022/04/28 04:29:45;;;;;;;;;;;;;;;;;;5015567;28;19941;-72
2022/04/28 04:32:17;;;;;;;;;;;;;;;;;;5016254;28;19917;-73
2022/04/28 04:34:43;;;;;;;;;;;;;;;;;;5015666;28;19910;-73
2022/04/28 04:37:09;;;;;;;;;;;;;;;;;;5016401;28;19913;-73
2022/04/28 04:39:35;;;;;;;;;;;;;;;;;;5016719;28;19919;-73
2022/04/28 04:42:01;;;;;;;;;;;;;;;;;;5016539;28;20000;-73
2022/04/28 04:44:27;;;;;;;;;;;;;;;;;;5016105;28;19917;-73
2022/04/28 04:46:53;;;;;;;;;;;;;;;;;;5016436;28;20348;-73
2022/04/28 04:49:19;;;;;;;;;;;;;;;;;;5016551;28;20303;-73
2022/04/28 04:51:45;;;;;;;;;;;;;;;;;;5016116;28;19941;-72
2022/04/28 04:54:11;;;;;;;;;;;;;;;;;;5016347;28;20336;-73
2022/04/28 04:56:38;;;;;;;;;;;;;;;;;;5015962;28;20390;-73
2022/04/28 04:59:04;;;;;;;;;;;;;;;;;;5016120;28;19916;-73
2022/04/28 05:01:29;;;;;;;;;;;;;;;;;;5015498;28;20322;-72
2022/04/28 05:03:55;;;;;;;;;;;;;;;;;;5015889;28;19956;-72
2022/04/28 05:06:21;;;;;;;;;;;;;;;;;;5015435;28;19918;-73
2022/04/28 05:08:47;;;;;;;;;;;;;;;;;;5015502;28;19949;-73
2022/04/28 05:11:13;;;;;;;;;;;;;;;;;;5015413;28;19910;-73
2022/04/28 05:13:39;;;;;;;;;;;;;;;;;;5015355;28;20022;-73
2022/04/28 05:16:05;;;;;;;;;;;;;;;;;;5015490;28;19909;-73
2022/04/28 05:18:31;;;;;;;;;;;;;;;;;;5015327;28;20398;-72
2022/04/28 05:20:59;;;;;;;;;;;;;;;;;;5015181;28;20296;-73
2022/04/28 05:23:26;;;;;;;;;;;;;;;;;;4997809;28;19910;-74
2022/04/28 05:25:52;;;;;;;;;;;;;;;;;;5015121;28;19945;-74
2022/04/28 05:28:18;;;;;;;;;;;;;;;;;;5015314;28;19942;-74
2022/04/28 05:30:44;;;;;;;;;;;;;;;;;;5015303;28;19965;-74
2022/04/28 05:33:10;;;;;;;;;;;;;;;;;;5014889;28;20287;-74
2022/04/28 05:35:36;;;;;;;;;;;;;;;;;;5015494;28;19916;-74
2022/04/28 05:38:02;;;;;;;;;;;;;;;;;;5015200;28;20414;-74
2022/04/28 05:40:28;;;;;;;;;;;;;;;;;;5015283;28;20027;-73
2022/04/28 05:45:47;;;;;;;;;;;;;;;;;;5014279;28;20156;-74
2022/04/28 05:48:13;;;;;;;;;;;;;;;;;;5015082;28;19910;-74
2022/04/28 05:50:39;;;;;;;;;;;;;;;;;;5015331;28;19914;-74
2022/04/28 05:53:05;;;;;;;;;;;;;;;;;;5013797;28;20287;-74
2022/04/28 05:55:31;;;;;;;;;;;;;;;;;;5023948;28;19935;-76
2022/04/28 05:57:59;;;;;;;;;;;;;;;;;;5017694;28;19909;-73
2022/04/28 06:00:24;;;;;;;;;;;;;;;;;;5014313;28;19972;-73
2022/04/28 06:02:50;;;;;;;;;;;;;;;;;;5014782;28;19913;-73
2022/04/28 06:05:17;;;;;;;;;;;;;;;;;;5013399;28;19925;-73
2022/04/28 06:07:43;;;;;;;;;;;;;;;;;;5033739;28;19932;-73
2022/04/28 06:10:09;;;;;;;;;;;;;;;;;;5027075;28;19948;-73
2022/04/28 06:12:35;;;;;;;;;;;;;;;;;;5014751;28;19916;-74
2022/04/28 06:15:00;;;;;;;;;;;;;;;;;;5014156;28;19909;-74
2022/04/28 06:17:26;;;;;;;;;;;;;;;;;;5025204;28;20464;-74
2022/04/28 06:19:52;;;;;;;;;;;;;;;;;;5014537;28;20351;-73
2022/04/28 06:22:18;;;;;;;;;;;;;;;;;;5014795;28;19913;-74
2022/04/28 06:24:44;;;;;;;;;;;;;;;;;;5014076;28;19916;-74
2022/04/28 06:27:10;;;;;;;;;;;;;;;;;;5014548;28;20413;-74
2022/04/28 06:29:36;;;;;;;;;;;;;;;;;;5014049;28;19960;-73
2022/04/28 06:32:02;;;;;;;;;;;;;;;;;;5015075;28;19914;-73
2022/04/28 06:34:28;;;;;;;;;;;;;;;;;;5026490;28;19931;-73
2022/04/28 06:36:54;;;;;;;;;;;;;;;;;;5014282;28;19909;-73
2022/04/28 06:39:20;;;;;;;;;;;;;;;;;;5014685;28;19913;-75
2022/04/28 06:41:46;;;;;;;;;;;;;;;;;;5014471;28;19910;-75
2022/04/28 06:44:12;;;;;;;;;;;;;;;;;;5012562;28;19998;-74
2022/04/28 06:46:38;;;;;;;;;;;;;;;;;;5011520;28;19917;-74
2022/04/28 06:49:04;;;;;;;;;;;;;;;;;;5015098;28;19909;-74
2022/04/28 06:51:31;;;;;;;;;;;;;;;;;;5013618;28;19940;-74
2022/04/28 06:54:00;;;;;;;;;;;;;;;;;;5014296;28;19909;-74
2022/04/28 06:56:26;;;;;;;;;;;;;;;;;;5013573;28;19953;-75
2022/04/28 06:58:52;;;;;;;;;;;;;;;;;;5013799;28;19917;-75
2022/04/28 07:01:18;;;;;;;;;;;;;;;;;;5013740;28;19918;-75
2022/04/28 07:03:44;;;;;;;;;;;;;;;;;;5013979;28;19915;-74
2022/04/28 07:06:10;;;;;;;;;;;;;;;;;;5013846;28;20271;-74
2022/04/28 07:08:36;;;;;;;;;;;;;;;;;;5013966;28;19991;-74
2022/04/28 07:11:02;;;;;;;;;;;;;;;;;;5013816;28;19909;-74
2022/04/28 07:13:28;;;;;;;;;;;;;;;;;;5015188;28;19909;-74
2022/04/28 07:15:55;;;;;;;;;;;;;;;;;;5013963;28;19909;-74
2022/04/28 07:18:21;;;;;;;;;;;;;;;;;;5022003;28;20000;-74
2022/04/28 07:20:47;;;;;;;;;;;;;;;;;;5023986;28;19909;-74
2022/04/28 07:23:13;;;;;;;;;;;;;;;;;;5014057;28;19964;-74
2022/04/28 07:25:40;;;;;;;;;;;;;;;;;;5013543;28;19971;-75
2022/04/28 07:28:06;;;;;;;;;;;;;;;;;;5014228;28;19916;-75
2022/04/28 07:30:31;;;;;;;;;;;;;;;;;;5021167;28;19909;-74
2022/04/28 07:32:57;;;;;;;;;;;;;;;;;;5012551;28;20040;-75
2022/04/28 07:35:24;;;;;;;;;;;;;;;;;;5004178;28;20271;-74
2022/04/28 07:37:50;;;;;;;;;;;;;;;;;;5013471;28;19914;-74
2022/04/28 07:40:17;;;;;;;;;;;;;;;;;;5013562;28;19909;-74
2022/04/28 07:42:49;;;;;;;;;;;;;;;;;;5015633;28;19991;-74
2022/04/28 07:45:18;;;;;;;;;;;;;;;;;;5032733;28;19917;-74
2022/04/28 07:47:44;;;;;;;;;;;;;;;;;;5005067;28;19909;-74
2022/04/28 07:50:10;;;;;;;;;;;;;;;;;;5013214;28;19949;-74
2022/04/28 07:52:37;;;;;;;;;;;;;;;;;;5017905;28;20375;-74
2022/04/28 07:55:03;;;;;;;;;;;;;;;;;;5013372;28;19992;-74
2022/04/28 07:57:29;;;;;;;;;;;;;;;;;;4995903;28;19916;-73
2022/04/28 07:59:55;;;;;;;;;;;;;;;;;;5012624;28;19924;-74
2022/04/28 08:02:21;;;;;;;;;;;;;;;;;;5011846;28;19909;-74
2022/04/28 08:04:47;;;;;;;;;;;;;;;;;;5012477;28;19917;-73
2022/04/28 08:07:13;;;;;;;;;;;;;;;;;;5012008;28;20285;-73
2022/04/28 08:09:39;;;;;;;;;;;;;;;;;;5014517;28;19910;-73
2022/04/28 08:12:06;;;;;;;;;;;;;;;;;;5015559;28;19910;-74
2022/04/28 08:14:32;;;;;;;;;;;;;;;;;;5015647;28;19913;-73
2022/04/28 08:16:58;;;;;;;;;;;;;;;;;;5016357;28;19909;-73
2022/04/28 08:19:24;;;;;;;;;;;;;;;;;;5014939;28;19955;-74
2022/04/28 08:21:50;;;;;;;;;;;;;;;;;;5016018;28;19937;-73
2022/04/28 08:24:16;;;;;;;;;;;;;;;;;;5016046;28;19921;-73
2022/04/28 08:26:42;;;;;;;;;;;;;;;;;;5015958;28;20360;-73
2022/04/28 08:29:08;;;;;;;;;;;;;;;;;;5015968;28;19963;-73
2022/04/28 08:31:36;;;;;;;;;;;;;;;;;;5016297;28;20323;-74
2022/04/28 08:34:02;;;;;;;;;;;;;;;;;;5016052;28;19909;-71
2022/04/28 08:36:28;;;;;;;;;;;;;;;;;;5015981;28;19944;-73
2022/04/28 08:38:54;;;;;;;;;;;;;;;;;;5016510;28;19920;-73
2022/04/28 08:41:20;;;;;;;;;;;;;;;;;;5016268;28;19913;-73
2022/04/28 08:43:46;;;;;;;;;;;;;;;;;;5016002;28;19986;-73
2022/04/28 08:48:56;;;;;;;;;;;;;;;;;;5015622;28;20467;-73
2022/04/28 08:51:24;;;;;;;;;;;;;;;;;;5015918;28;19909;-73
2022/04/28 08:53:50;;;;;;;;;;;;;;;;;;5015708;28;19913;-73
2022/04/28 08:56:16;;;;;;;;;;;;;;;;;;5015626;28;20391;-73
2022/04/28 08:58:42;;;;;;;;;;;;;;;;;;5014934;28;19956;-73
2022/04/28 09:01:08;;;;;;;;;;;;;;;;;;5014925;28;19924;-73
2022/04/28 09:03:34;;;;;;;;;;;;;;;;;;5015845;28;20007;-73
2022/04/28 09:06:00;;;;;;;;;;;;;;;;;;5015721;28;19953;-73
2022/04/28 09:08:27;;;;;;;;;;;;;;;;;;5014932;28;20366;-73
2022/04/28 09:10:54;;;;;;;;;;;;;;;;;;5015699;28;20391;-74
2022/04/28 09:16:05;;;;;;;;;;;;;;;;;;5014820;28;19985;-73
2022/04/28 09:18:31;;;;;;;;;;;;;;;;;;4997955;28;19913;-74
2022/04/28 09:20:57;;;;;;;;;;;;;;;;;;5015200;28;19988;-72
2022/04/28 09:23:23;;;;;;;;;;;;;;;;;;5015073;28;20008;-73
2022/04/28 09:25:49;;;;;;;;;;;;;;;;;;5008942;28;19917;-73
2022/04/28 09:28:15;;;;;;;;;;;;;;;;;;5015270;28;19909;-74
2022/04/28 09:30:42;;;;;;;;;;;;;;;;;;5016152;28;19915;-73
2022/04/28 09:33:08;;;;;;;;;;;;;;;;;;5015174;28;20348;-74
2022/04/28 09:35:34;;;;;;;;;;;;;;;;;;5015000;28;19916;-74
2022/04/28 09:38:00;;;;;;;;;;;;;;;;;;5015535;28;19924;-74
2022/04/28 09:43:10;;;;;;;;;;;;;;;;;;5014804;28;19968;-73
2022/04/28 09:45:36;;;;;;;;;;;;;;;;;;5013996;28;19921;-73
2022/04/28 09:48:03;;;;;;;;;;;;;;;;;;5014719;28;19910;-73
2022/04/28 09:50:29;;;;;;;;;;;;;;;;;;5009958;28;19956;-73
2022/04/28 09:52:55;;;;;;;;;;;;;;;;;;5003387;28;19938;-73
2022/04/28 09:55:22;;;;;;;;;;;;;;;;;;5014577;28;20032;-73
2022/04/28 09:57:48;;;;;;;;;;;;;;;;;;5013908;28;19909;-74
2022/04/28 10:00:14;;;;;;;;;;;;;;;;;;5014045;28;19945;-73
2022/04/28 10:02:40;;;;;;;;;;;;;;;;;;5014523;28;19918;-74
2022/04/28 10:05:06;;;;;;;;;;;;;;;;;;5014198;28;19909;-74
2022/04/28 10:07:32;;;;;;;;;;;;;;;;;;5013163;28;19916;-74
2022/04/28 10:09:58;;;;;;;;;;;;;;;;;;5013808;28;19909;-74
2022/04/28 10:12:25;;;;;;;;;;;;;;;;;;5014147;28;19916;-74
2022/04/28 10:14:53;;;;;;;;;;;;;;;;;;5013105;28;19995;-74
2022/04/28 10:17:19;;;;;;;;;;;;;;;;;;5013999;28;19910;-74
2022/04/28 10:19:45;;;;;;;;;;;;;;;;;;5013658;28;19910;-74
2022/04/28 10:22:11;;;;;;;;;;;;;;;;;;5014510;28;20423;-74
2022/04/28 10:32:57;;;;;;;;;;;;;;;;;;5011036;28;19963;-73
2022/04/28 10:35:23;;;;;;;;;;;;;;;;;;5013927;28;20000;-72
2022/04/28 10:37:49;;;;;;;;;;;;;;;;;;5014126;28;19945;-72
2022/04/28 10:40:16;;;;;;;;;;;;;;;;;;5014424;28;19935;-72
2022/04/28 10:42:42;;;;;;;;;;;;;;;;;;5013613;28;19916;-72
2022/04/28 10:45:08;;;;;;;;;;;;;;;;;;5020777;28;20368;-72
2022/04/28 10:47:34;;;;;;;;;;;;;;;;;;5013337;28;19909;-72
2022/04/28 10:50:00;;;;;;;;;;;;;;;;;;5013533;28;20025;-72
2022/04/28 10:52:26;;;;;;;;;;;;;;;;;;5013467;28;20006;-72
2022/04/28 10:54:53;;;;;;;;;;;;;;;;;;5013309;28;19917;-72
2022/04/28 10:57:19;;;;;;;;;;;;;;;;;;5013536;28;19967;-72
2022/04/28 10:59:45;;;;;;;;;;;;;;;;;;5013896;28;20003;-72
2022/04/28 11:02:13;;;;;;;;;;;;;;;;;;5014029;28;20350;-72
2022/04/28 11:04:39;;;;;;;;;;;;;;;;;;5013627;28;19999;-72
2022/04/28 11:07:05;;;;;;;;;;;;;;;;;;5013604;28;20008;-72
2022/04/28 11:09:31;;;;;;;;;;;;;;;;;;5013227;28;19955;-71
2022/04/28 11:11:57;;;;;;;;;;;;;;;;;;5015010;28;20009;-72
2022/04/28 11:14:23;;;;;;;;;;;;;;;;;;5012554;28;20364;-72
2022/04/28 11:16:49;;;;;;;;;;;;;;;;;;4994990;28;19917;-73
2022/04/28 11:19:15;;;;;;;;;;;;;;;;;;5013598;28;19948;-72
2022/04/28 11:21:43;;;;;;;;;;;;;;;;;;5013708;28;19916;-71
2022/04/28 11:24:09;;;;;;;;;;;;;;;;;;5013670;28;19992;-72
2022/04/28 11:26:35;;;;;;;;;;;;;;;;;;5012866;28;20024;-72
2022/04/28 11:29:01;;;;;;;;;;;;;;;;;;5012883;28;20351;-72
2022/04/28 11:31:27;;;;;;;;;;;;;;;;;;5012952;28;19909;-72
2022/04/28 11:33:53;;;;;;;;;;;;;;;;;;5013697;28;19910;-72
2022/04/28 11:36:19;;;;;;;;;;;;;;;;;;5013535;28;19909;-72
2022/04/28 11:38:45;;;;;;;;;;;;;;;;;;5012404;28;19910;-72
2022/04/28 11:41:11;;;;;;;;;;;;;;;;;;5012780;28;19909;-72
2022/04/28 11:43:37;;;;;;;;;;;;;;;;;;5008304;28;19910;-72
2022/04/28 11:46:04;;;;;;;;;;;;;;;;;;5014752;28;19917;-74
2022/04/28 11:48:32;;;;;;;;;;;;;;;;;;5003258;28;20069;-73
2022/04/28 11:50:58;;;;;;;;;;;;;;;;;;5015643;28;19913;-73
2022/04/28 11:53:24;;;;;;;;;;;;;;;;;;5015528;28;19939;-73
2022/04/28 11:55:50;;;;;;;;;;;;;;;;;;5015800;28;19960;-73
2022/04/28 11:58:17;;;;;;;;;;;;;;;;;;5015977;28;19987;-73
2022/04/28 12:00:42;;;;;;;;;;;;;;;;;;5015194;28;20023;-73
2022/04/28 12:03:08;;;;;;;;;;;;;;;;;;4998166;28;19949;-73
2022/04/28 12:05:35;;;;;;;;;;;;;;;;;;5015398;28;19971;-73
2022/04/28 12:08:01;;;;;;;;;;;;;;;;;;5015809;28;19909;-73
2022/04/28 12:15:57;;;;;;;;;;;;;;;;;;5014828;28;20517;-76
2022/04/28 12:21:07;;;;;;;;;;;;;;;;;;5007479;28;20327;-75
2022/04/28 12:23:33;;;;;;;;;;;;;;;;;;5013965;28;19913;-75
2022/04/28 12:25:59;;;;;;;;;;;;;;;;;;5015178;28;19972;-75
2022/04/28 12:28:26;;;;;;;;;;;;;;;;;;5014936;28;19910;-74
2022/04/28 12:30:52;;;;;;;;;;;;;;;;;;5014480;28;20360;-74
2022/04/28 12:33:17;;;;;;;;;;;;;;;;;;5015080;28;19913;-74
2022/04/28 12:35:43;;;;;;;;;;;;;;;;;;5014951;28;20383;-74
2022/04/28 12:38:10;;;;;;;;;;;;;;;;;;5014781;28;20276;-75
2022/04/28 12:40:36;;;;;;;;;;;;;;;;;;5015079;28;20494;-75
2022/04/28 12:43:02;;;;;;;;;;;;;;;;;;5014234;28;19928;-75
2022/04/28 12:45:28;;;;;;;;;;;;;;;;;;5014564;28;19969;-75
2022/04/28 12:47:54;;;;;;;;;;;;;;;;;;5015038;28;19917;-73
2022/04/28 12:50:20;;;;;;;;;;;;;;;;;;5015716;28;19914;-76
2022/04/28 12:52:46;;;;;;;;;;;;;;;;;;5015691;28;20080;-74
2022/04/28 12:55:13;;;;;;;;;;;;;;;;;;5012948;28;20399;-75
2022/04/28 12:57:39;;;;;;;;;;;;;;;;;;5014913;28;19909;-76
2022/04/28 13:00:05;;;;;;;;;;;;;;;;;;5014944;28;20339;-75
2022/04/28 13:02:31;;;;;;;;;;;;;;;;;;5015039;28;19913;-76
2022/04/28 13:04:57;;;;;;;;;;;;;;;;;;4997474;28;19910;-76
2022/04/28 13:07:23;;;;;;;;;;;;;;;;;;5015174;28;20284;-76
2022/04/28 13:09:49;;;;;;;;;;;;;;;;;;5014711;28;20484;-75
2022/04/28 13:12:15;;;;;;;;;;;;;;;;;;5008263;28;19913;-75
2022/04/28 13:14:41;;;;;;;;;;;;;;;;;;5014181;28;19917;-76
2022/04/28 13:17:07;;;;;;;;;;;;;;;;;;5014742;28;19910;-74
2022/04/28 13:19:33;;;;;;;;;;;;;;;;;;5014131;28;19910;-74
2022/04/28 13:21:59;;;;;;;;;;;;;;;;;;4993436;28;19917;-74
2022/04/28 13:24:24;;;;;;;;;;;;;;;;;;5009388;28;20153;-75
2022/04/28 13:26:52;;;;;;;;;;;;;;;;;;5001634;28;19922;-74
2022/04/28 13:29:18;;;;;;;;;;;;;;;;;;5012965;28;19917;-73
2022/04/28 13:31:44;;;;;;;;;;;;;;;;;;5019672;28;19916;-73
2022/04/28 13:34:10;;;;;;;;;;;;;;;;;;5015029;28;19953;-73
2022/04/28 13:36:36;;;;;;;;;;;;;;;;;;5013650;28;19909;-74
2022/04/28 13:39:07;;;;;;;;;;;;;;;;;;5014201;28;19945;-74
2022/04/28 13:41:35;;;;;;;;;;;;;;;;;;5013585;28;19913;-75
2022/04/28 13:44:01;;;;;;;;;;;;;;;;;;5013005;28;19935;-76
2022/04/28 13:46:27;;;;;;;;;;;;;;;;;;5015027;28;19921;-75
2022/04/28 13:48:53;;;;;;;;;;;;;;;;;;5015000;28;20008;-75
2022/04/28 13:51:19;;;;;;;;;;;;;;;;;;5014895;28;19956;-75
2022/04/28 13:53:45;;;;;;;;;;;;;;;;;;5012892;28;19940;-74
2022/04/28 13:56:11;;;;;;;;;;;;;;;;;;5013763;28;19909;-74
2022/04/28 13:58:37;;;;;;;;;;;;;;;;;;5014797;28;19916;-74
2022/04/28 14:01:03;;;;;;;;;;;;;;;;;;5014704;28;19967;-73
2022/04/28 14:03:29;;;;;;;;;;;;;;;;;;5015078;28;19941;-73
2022/04/28 14:05:55;;;;;;;;;;;;;;;;;;5014915;28;19964;-73
2022/04/28 14:08:21;;;;;;;;;;;;;;;;;;5015015;28;19949;-73
2022/04/28 14:10:47;;;;;;;;;;;;;;;;;;5015136;28;19910;-73
2022/04/28 14:13:13;;;;;;;;;;;;;;;;;;5014954;28;19916;-73
2022/04/28 14:26:11;;;;;;;;;;;;;;;;;;5713826;23;20272;-74
2022/04/28 14:28:37;;;;;;;;;;;;;;;;;;5015769;28;19910;-73
2022/04/28 14:31:03;;;;;;;;;;;;;;;;;;5015617;28;19944;-74
2022/04/28 14:33:29;;;;;;;;;;;;;;;;;;5015640;28;19951;-74
2022/04/28 14:35:55;;;;;;;;;;;;;;;;;;5015759;28;19915;-74
2022/04/28 14:38:21;;;;;;;;;;;;;;;;;;5015665;28;19909;-74
2022/04/28 14:40:48;;;;;;;;;;;;;;;;;;5015905;28;19913;-74
2022/04/28 14:43:14;;;;;;;;;;;;;;;;;;5015670;28;20352;-74
2022/04/28 14:45:41;;;;;;;;;;;;;;;;;;5015448;28;19917;-74
2022/04/28 14:48:07;;;;;;;;;;;;;;;;;;5015363;28;19913;-74
2022/04/28 14:53:18;;;;;;;;;;;;;;;;;;5015094;28;19971;-74
2022/04/28 14:55:44;;;;;;;;;;;;;;;;;;5014910;28;19913;-73
2022/04/28 14:58:10;;;;;;;;;;;;;;;;;;5015638;28;19913;-74
2022/04/28 15:00:36;;;;;;;;;;;;;;;;;;5015547;28;19910;-75
2022/04/28 15:03:02;;;;;;;;;;;;;;;;;;5015197;28;19913;-74
2022/04/28 15:05:28;;;;;;;;;;;;;;;;;;5015026;28;19916;-74
2022/04/28 15:07:54;;;;;;;;;;;;;;;;;;5015964;28;19948;-74
2022/04/28 15:10:20;;;;;;;;;;;;;;;;;;5014885;28;20319;-74
2022/04/28 15:12:47;;;;;;;;;;;;;;;;;;5015408;28;19913;-74
2022/04/28 15:15:14;;;;;;;;;;;;;;;;;;5014883;28;19913;-74
2022/04/28 15:17:41;;;;;;;;;;;;;;;;;;5015461;28;19956;-75
2022/04/28 15:20:06;;;;;;;;;;;;;;;;;;5018955;28;19953;-74
2022/04/28 15:22:32;;;;;;;;;;;;;;;;;;5019031;28;19909;-74
2022/04/28 15:24:58;;;;;;;;;;;;;;;;;;5019213;28;19909;-73
2022/04/28 15:27:26;;;;;;;;;;;;;;;;;;5017346;28;19983;-74
2022/04/28 15:29:52;;;;;;;;;;;;;;;;;;5018015;28;19909;-73
2022/04/28 15:32:18;;;;;;;;;;;;;;;;;;5034497;28;19909;-77
2022/04/28 15:34:44;;;;;;;;;;;;;;;;;;5018459;28;19909;-73
2022/04/28 15:37:10;;;;;;;;;;;;;;;;;;5018021;28;19917;-74
2022/04/28 15:39:36;;;;;;;;;;;;;;;;;;5019172;28;19964;-73
2022/04/28 15:42:02;;;;;;;;;;;;;;;;;;5018383;28;20414;-74
2022/04/28 15:44:28;;;;;;;;;;;;;;;;;;5018117;28;20260;-73
2022/04/28 15:46:54;;;;;;;;;;;;;;;;;;5018025;28;19972;-74
2022/04/28 15:49:20;;;;;;;;;;;;;;;;;;5018246;28;19966;-74
2022/04/28 15:51:46;;;;;;;;;;;;;;;;;;5013921;28;19945;-74
2022/04/28 15:54:12;;;;;;;;;;;;;;;;;;5005135;28;19909;-74
2022/04/28 15:56:38;;;;;;;;;;;;;;;;;;5014092;28;19975;-73
2022/04/28 15:59:04;;;;;;;;;;;;;;;;;;5016217;28;19917;-73
2022/04/28 16:01:30;;;;;;;;;;;;;;;;;;5010951;28;19910;-73
2022/04/28 16:03:57;;;;;;;;;;;;;;;;;;5003922;28;19941;-74
2022/04/28 16:06:23;;;;;;;;;;;;;;;;;;5016458;28;19920;-74
2022/04/28 16:08:49;;;;;;;;;;;;;;;;;;4980959;28;20281;-76
2022/04/28 16:11:15;;;;;;;;;;;;;;;;;;4993222;28;20000;-76
2022/04/28 16:13:41;;;;;;;;;;;;;;;;;;5015746;28;19913;-76
2022/04/28 16:16:07;;;;;;;;;;;;;;;;;;5013968;28;19909;-75
2022/04/28 16:18:33;;;;;;;;;;;;;;;;;;5016110;28;19921;-76
2022/04/28 16:21:00;;;;;;;;;;;;;;;;;;5022765;28;19964;-75
2022/04/28 16:23:26;;;;;;;;;;;;;;;;;;4999513;28;19917;-75
2022/04/28 16:25:53;;;;;;;;;;;;;;;;;;4996087;28;19918;-74
2022/04/28 16:28:19;;;;;;;;;;;;;;;;;;4997905;28;20332;-75
2022/04/28 16:30:45;;;;;;;;;;;;;;;;;;4996252;28;19918;-76
2022/04/28 16:33:12;;;;;;;;;;;;;;;;;;5000134;28;19964;-75
2022/04/28 16:35:38;;;;;;;;;;;;;;;;;;5008804;28;19910;-77
2022/04/28 16:38:04;;;;;;;;;;;;;;;;;;5017801;28;19963;-76
2022/04/28 16:40:30;;;;;;;;;;;;;;;;;;5017464;28;19956;-75
2022/04/28 16:42:56;;;;;;;;;;;;;;;;;;5017751;28;19910;-75
2022/04/28 16:45:22;;;;;;;;;;;;;;;;;;5017310;28;20365;-75
2022/04/28 16:47:48;;;;;;;;;;;;;;;;;;5017615;28;19920;-75
2022/04/28 16:50:14;;;;;;;;;;;;;;;;;;5017241;28;19917;-75
2022/04/28 16:52:44;;;;;;;;;;;;;;;;;;5017389;28;19913;-75
2022/04/28 16:55:10;;;;;;;;;;;;;;;;;;5017474;28;20004;-75
2022/04/28 16:57:37;;;;;;;;;;;;;;;;;;5017085;28;19956;-75
2022/04/28 17:00:03;;;;;;;;;;;;;;;;;;5016326;28;20245;-75
2022/04/28 17:04:13;;;;;;;;;;;;;;;;;;5017309;28;20355;-76
2022/04/28 17:05:15;;;;;;;;;;;;;;;;;;5016734;28;19913;-75
2022/04/28 17:07:42;;;;;;;;;;;;;;;;;;5017066;28;19917;-75
2022/04/28 17:10:08;;;;;;;;;;;;;;;;;;5017238;28;19943;-75
2022/04/28 17:12:34;;;;;;;;;;;;;;;;;;5016858;28;19909;-78
2022/04/28 17:15:00;;;;;;;;;;;;;;;;;;5016960;28;19920;-75
2022/04/28 17:17:26;;;;;;;;;;;;;;;;;;5015872;28;19909;-75
2022/04/28 17:19:52;;;;;;;;;;;;;;;;;;5017240;28;20272;-75
2022/04/28 17:22:19;;;;;;;;;;;;;;;;;;5017338;28;19909;-75
2022/04/28 17:24:45;;;;;;;;;;;;;;;;;;5015667;28;19984;-76
2022/04/28 17:27:11;;;;;;;;;;;;;;;;;;5031811;28;19956;-75
2022/04/28 17:29:37;;;;;;;;;;;;;;;;;;5036488;28;19909;-76
2022/04/28 17:32:07;;;;;;;;;;;;;;;;;;5036307;28;19936;-76